Airfield :
LOGIN :

Register | Disclaimer

   EN    FR    IT 

 










Legend :    VFR   Marginal VFR   IFR   Intensive IFR   Very Intensive IFR
Visi :
Ceiling :
>= 8 km
>= 3000ft
5 to 8 km
1000 to 3000 ft
1500m to 5 km
500 to 1000 ft
800 to 1500m
200 to 500 ft
< 800m
< 200 ft
Symbols :   Thunderstorms  Fog  Heavy snow  Heavy precipitations  Wind > 20 kt
SIGMETs :     Misc.  Thunderstorms  Icing  Turbulence  Mountain Waves  Volcanic Ashes







- Airport Elevation : 1521 ft
- IATA code : NCY
- Download approach charts


LFLP - Annecy

CURRENT METAR :
  • 230630Z AUTO 00000KT 9999 OVC023 15/14 Q1024 NOSIG

EXPIRED METARs :
  • 230600Z AUTO VRB01KT 9999 FEW018 OVC024 15/14 Q1024 NOSIG
  • 230530Z AUTO 08001KT 9000 OVC025 14/14 Q1024 NOSIG
  • 230500Z AUTO 00000KT 8000 BKN026 14/13 Q1024 NOSIG
  • 230430Z AUTO VRB02KT 7000 NSC 13/13 Q1024 NOSIG
  • 230400Z AUTO VRB01KT 7000 NSC 13/13 Q1024 NOSIG

TAF TAF LFLP
Valid from the 23 at 03:00 until the 24 at 03:00 UTC


230200Z 2303/2403 VRB03KT CAVOK
TEMPO 2303/2308 BKN025
No reported NOTAMs for that airfield.



MET'MAP, your aeronautical weather chart ! - Copyright ORBIFLY December 2007 - Disclaimer

ORBIFLY MET'MAP TEAM :

Programming & Development : Alexandra Zaïnal
Concept & Development : Baudouin d'Aumeries
Co-Development & Prog : Marc-Olivier Méhu
Technical & hardware support : Manuel Goepfert

Contact : metmap@orbifly.com




SOURCES & CREDITS :

   NOAA